O John Clark Restricted Landing Area

Jump to: basic info | weather | comments

Related pages: nearby airports | nearby navaids | notams | map

Basic information (top)

Codes: 7IL2
Location: lon 42.368401, lat -87.991699, elev 790 ft / 241 m msl
Status: small_airport

Weather (top)

Current conditions for Waukegan Regional Airport 6nm (12km) ENE (rec'd 2014/04/21 00:52Z):

KUGN 210052Z AUTO 14009KT 10SM CLR 16/03 A3003 RMK AO2 SLP167 T01560033

Airport forecast for Kenosha Regional Airport 14nm (26km) NNE (rec'd 2014/04/20 00:21Z):

TAF KENW 202320Z 2100/2124 15010KT P6SM FEW070 BKN200 
     FM210200 19007KT P6SM BKN100 
     FM211400 24009KT 4SM -RA OVC050 
     FM211600 26010KT 4SM -SHRA BR OVC025

Latest comments (top)

No comments yet for O John Clark Restricted Landing Area

More... (top)

See also NOTAMs and nearby airports and navaids, or visit the O John Clark Restricted Landing Area page at the main OurAirports website..